Map

Track Data

SID SEASON NUMBER BASIN SUBBASIN NAME ISO_TIME NATURE LAT LON WMO_WIND WMO_PRES WMO_AGENCY TRACK_TYPE DIST2LAND LANDFALL IFLAG USA_AGENCY USA_ATCF_ID USA_LAT USA_LON USA_RECORD USA_STATUS USA_WIND USA_PRES USA_SSHS USA_R34_NE USA_R34_SE USA_R34_SW USA_R34_NW USA_R50_NE USA_R50_SE USA_R50_SW USA_R50_NW USA_R64_NE USA_R64_SE USA_R64_SW USA_R64_NW USA_POCI USA_ROCI USA_RMW USA_EYE TOKYO_LAT TOKYO_LON TOKYO_GRADE TOKYO_WIND TOKYO_PRES TOKYO_R50_DIR TOKYO_R50_LONG TOKYO_R50_SHORT TOKYO_R30_DIR TOKYO_R30_LONG TOKYO_R30_SHORT TOKYO_LAND CMA_LAT CMA_LON CMA_CAT CMA_WIND CMA_PRES HKO_LAT HKO_LON HKO_CAT HKO_WIND HKO_PRES NEWDELHI_LAT NEWDELHI_LON NEWDELHI_GRADE NEWDELHI_WIND NEWDELHI_PRES NEWDELHI_CI NEWDELHI_DP NEWDELHI_POCI REUNION_LAT REUNION_LON REUNION_TYPE REUNION_WIND REUNION_PRES REUNION_TNUM REUNION_CI REUNION_RMW REUNION_R34_NE REUNION_R34_SE REUNION_R34_SW REUNION_R34_NW REUNION_R50_NE REUNION_R50_SE REUNION_R50_SW REUNION_R50_NW REUNION_R64_NE REUNION_R64_SE REUNION_R64_SW REUNION_R64_NW BOM_LAT BOM_LON BOM_TYPE BOM_WIND BOM_PRES BOM_TNUM BOM_CI BOM_RMW BOM_R34_NE BOM_R34_SE BOM_R34_SW BOM_R34_NW BOM_R50_NE BOM_R50_SE BOM_R50_SW BOM_R50_NW BOM_R64_NE BOM_R64_SE BOM_R64_SW BOM_R64_NW BOM_ROCI BOM_POCI BOM_EYE BOM_POS_METHOD BOM_PRES_METHOD NADI_LAT NADI_LON NADI_CAT NADI_WIND NADI_PRES WELLINGTON_LAT WELLINGTON_LON WELLINGTON_WIND WELLINGTON_PRES DS824_LAT DS824_LON DS824_STAGE DS824_WIND DS824_PRES TD9636_LAT TD9636_LON TD9636_STAGE TD9636_WIND TD9636_PRES TD9635_LAT TD9635_LON TD9635_WIND TD9635_PRES TD9635_ROCI NEUMANN_LAT NEUMANN_LON NEUMANN_CLASS NEUMANN_WIND NEUMANN_PRES MLC_LAT MLC_LON MLC_CLASS MLC_WIND MLC_PRES USA_GUST BOM_GUST BOM_GUST_PER REUNION_GUST REUNION_GUST_PER USA_SEAHGT USA_SEARAD_NE USA_SEARAD_SE USA_SEARAD_SW USA_SEARAD_NW STORM_SPEED STORM_DIR
1972265N13327 1972 100 NA NA NOT_NAMED 1972-09-20 12:00:00 TS 13.0000 -33.0000 20 hurdat_atl main 1684 1684 O_____________ hurdat_atl AL151972 13.0000 -33.0000 TD 20 -1 10 270
1972265N13327 1972 100 NA NA NOT_NAMED 1972-09-20 15:00:00 TS 13.0002 -33.5000 main 1738 1738 P_____________ AL151972 13.0002 -33.5000 TD 22 -1 10 270
1972265N13327 1972 100 NA NA NOT_NAMED 1972-09-20 18:00:00 TS 13.0000 -34.0000 25 hurdat_atl main 1792 1792 O_____________ hurdat_atl AL151972 13.0000 -34.0000 TD 25 -1 10 270
1972265N13327 1972 100 NA NA NOT_NAMED 1972-09-20 21:00:00 TS 12.9999 -34.5000 main 1845 1845 P_____________ AL151972 12.9999 -34.5000 TD 25 -1 10 270
1972265N13327 1972 100 NA NA NOT_NAMED 1972-09-21 00:00:00 TS 13.0000 -35.0000 25 hurdat_atl main 1858 1843 O_____________ hurdat_atl AL151972 13.0000 -35.0000 TD 25 -1 10 270
1972265N13327 1972 100 NA NA NOT_NAMED 1972-09-21 03:00:00 TS 12.9999 -35.5000 main 1843 1830 P_____________ AL151972 12.9999 -35.5000 TD 25 -1 10 270
1972265N13327 1972 100 NA NA NOT_NAMED 1972-09-21 06:00:00 TS 13.0000 -36.0000 25 hurdat_atl main 1830 1818 O_____________ hurdat_atl AL151972 13.0000 -36.0000 TD 25 -1 10 268
1972265N13327 1972 100 NA NA NOT_NAMED 1972-09-21 09:00:00 TS 12.9700 -36.5226 main 1818 1808 P_____________ AL151972 12.9700 -36.5226 TD 25 -1 10 270
1972265N13327 1972 100 NA NA NOT_NAMED 1972-09-21 12:00:00 TS 13.0000 -37.0000 25 hurdat_atl main 1808 1806 O_____________ hurdat_atl AL151972 13.0000 -37.0000 TD 25 -1 8 284
1972265N13327 1972 100 NA NA NOT_NAMED 1972-09-21 15:00:00 TS 13.1698 -37.3650 main 1823 1808 P_____________ AL151972 13.1698 -37.3650 TD 25 -1 8 300
1972265N13327 1972 100 NA NA NOT_NAMED 1972-09-21 18:00:00 TS 13.4000 -37.7000 25 hurdat_atl main 1808 1784 O_____________ hurdat_atl AL151972 13.4000 -37.7000 TD 25 -1 8 301
1972265N13327 1972 100 NA NA NOT_NAMED 1972-09-21 21:00:00 TS 13.6000 -38.1000 main 1784 1762 P_____________ AL151972 13.6000 -38.1000 TD 25 -1 9 297
1972265N13327 1972 100 NA NA NOT_NAMED 1972-09-22 00:00:00 TS 13.8000 -38.5000 25 hurdat_atl main 1762 1749 O_____________ hurdat_atl AL151972 13.8000 -38.5000 TD 25 -1 8 299
1972265N13327 1972 100 NA NA NOT_NAMED 1972-09-22 03:00:00 TS 14.0074 -38.8501 main 1741 1729 P_____________ AL151972 14.0074 -38.8501 TD 25 -1 8 300
1972265N13327 1972 100 NA NA NOT_NAMED 1972-09-22 06:00:00 TS 14.2000 -39.2000 25 hurdat_atl main 1729 1703 O_____________ hurdat_atl AL151972 14.2000 -39.2000 TD 25 -1 8 294
1972265N13327 1972 100 NA NA NOT_NAMED 1972-09-22 09:00:00 TS 14.3426 -39.6151 main 1703 1685 P_____________ AL151972 14.3426 -39.6151 TD 25 -1 8 291
1972265N13327 1972 100 NA NA NOT_NAMED 1972-09-22 12:00:00 TS 14.5000 -40.0000 25 hurdat_atl main 1685 1676 O_____________ hurdat_atl AL151972 14.5000 -40.0000 TD 25 -1 7 302
1972265N13327 1972 100 NA NA NOT_NAMED 1972-09-22 15:00:00 TS 14.7349 -40.2726 main 1676 1676 P_____________ AL151972 14.7349 -40.2726 TD 25 -1 7 316
1972265N13327 1972 100 NA NA NOT_NAMED 1972-09-22 18:00:00 TS 15.0000 -40.5000 25 hurdat_atl main 1683 1683 O_____________ hurdat_atl AL151972 15.0000 -40.5000 TD 25 -1 7 318
1972265N13327 1972 100 NA NA NOT_NAMED 1972-09-22 21:00:00 TS 15.2500 -40.7501 main 1676 1676 P_____________ AL151972 15.2500 -40.7501 TD 25 -1 7 316
1972265N13327 1972 100 NA NA NOT_NAMED 1972-09-23 00:00:00 TS 15.5000 -41.0000 25 hurdat_atl main 1686 1686 O_____________ hurdat_atl AL151972 15.5000 -41.0000 TD 25 -1 7 316
1972265N13327 1972 100 NA NA NOT_NAMED 1972-09-23 03:00:00 TS 15.7500 -41.2501 main 1681 1681 P_____________ AL151972 15.7500 -41.2501 TD 25 -1 7 316
1972265N13327 1972 100 NA NA NOT_NAMED 1972-09-23 06:00:00 TS 16.0000 -41.5000 25 hurdat_atl main 1692 1692 O_____________ hurdat_atl AL151972 16.0000 -41.5000 TD 25 -1 7 322
1972265N13327 1972 100 NA NA NOT_NAMED 1972-09-23 09:00:00 TS 16.2947 -41.6974 main 1704 1700 P_____________ AL151972 16.2947 -41.6974 TD 22 -1 7 316
1972265N13327 1972 100 NA NA NOT_NAMED 1972-09-23 12:00:00 TS 16.5000 -42.0000 20 hurdat_atl main 1702 1670 O_____________ hurdat_atl AL151972 16.5000 -42.0000 TD 20 -1 8 284
1972265N13327 1972 100 NA NA NOT_NAMED 1972-09-23 15:00:00 TS 16.4952 -42.5478 main 1670 1618 P_____________ AL151972 16.4952 -42.5478 TD 20 -1 12 265
1972265N13327 1972 100 NA NA NOT_NAMED 1972-09-23 18:00:00 TS 16.4000 -43.2000 20 hurdat_atl main 1618 1579 O_____________ hurdat_atl AL151972 16.4000 -43.2000 TD 20 -1 12 263
1972265N13327 1972 100 NA NA NOT_NAMED 1972-09-23 21:00:00 TS 16.3499 -43.8075 main 1570 1531 P_____________ AL151972 16.3499 -43.8075 TD 20 -1 12 265
1972265N13327 1972 100 NA NA NOT_NAMED 1972-09-24 00:00:00 TS 16.3000 -44.4000 20 hurdat_atl main 1531 1500 O_____________ hurdat_atl AL151972 16.3000 -44.4000 TD 20 -1 11 265
1972265N13327 1972 100 NA NA NOT_NAMED 1972-09-24 03:00:00 TS 16.2574 -44.9649 main 1494 1455 P_____________ AL151972 16.2574 -44.9649 TD 20 -1 11 265
1972265N13327 1972 100 NA NA NOT_NAMED 1972-09-24 06:00:00 TS 16.2000 -45.5000 20 hurdat_atl main 1455 1417 O_____________ hurdat_atl AL151972 16.2000 -45.5000 TD 20 -1 10 262
1972265N13327 1972 100 NA NA NOT_NAMED 1972-09-24 09:00:00 TS 16.1102 -46.0076 main 1417 1380 P_____________ AL151972 16.1102 -46.0076 TD 20 -1 10 258
1972265N13327 1972 100 NA NA NOT_NAMED 1972-09-24 12:00:00 TS 16.0000 -46.5000 20 hurdat_atl main 1380 O_____________ hurdat_atl AL151972 16.0000 -46.5000 TD 20 -1 10 257

About IBTrACS Database

This database is a web-friendly format of International Best Track Archive for Climate Stewardship (IBTrACS), a global best track data archive curated by NOAA dating back to 1842.

Updated: 2021-12-03